IST,Max TemperatureF,Mean TemperatureF,Min TemperatureF,Max Dew PointF,MeanDew PointF,Min DewpointF,Max Humidity, Mean Humidity, Min Humidity, Max Sea Level PressureIn, Mean Sea Level PressureIn, Min Sea Level PressureIn, Max VisibilityMiles, Mean VisibilityMiles, Min VisibilityMiles, Max Wind SpeedMPH, Mean Wind SpeedMPH, Max Gust SpeedMPH,PrecipitationIn, CloudCover, Events, WindDirDegrees
2012-12-1,77,64,50,48,40,28,76,46,15,30.09,30.02,29.93,3,2,1,9,1,,0.00,,,90
2012-12-2,76,61,46,48,40,37,66,44,21,30.12,30.04,29.97,2,2,1,7,1,,0.00,3,,123
2012-12-3,80,64,49,48,43,37,69,48,18,30.12,30.05,29.97,2,2,1,5,1,,0.00,1,,153
2012-12-4,82,66,51,50,45,41,72,49,19,30.12,30.04,29.94,2,1,1,6,1,,0.00,1,,284
2012-12-5,85,69,53,48,42,37,72,42,14,30.09,30.03,29.93,2,1,1,9,1,,0.00,3,,291
2012-12-6,87,71,55,49,42,36,63,35,18,30.09,30.02,29.92,2,2,1,8,2,,0.00,2,,292
2012-12-7,83,68,53,45,39,32,67,38,10,30.06,30.00,29.88,2,2,1,8,1,,0.00,2,,323
2012-12-8,86,68,50,51,39,30,59,36,15,30.04,29.96,29.85,2,1,1,6,2,,0.00,1,,240
2012-12-9,86,69,52,50,40,30,67,39,10,29.98,29.92,29.81,3,2,1,6,1,,0.00,1,,138
2012-12-10,84,68,52,47,43,39,63,42,16,30.10,29.90,29.85,3,2,1,5,0,,0.00,3,,135
2012-12-11,84,72,60,52,47,39,68,46,15,29.98,29.90,29.80,2,2,1,13,5,,0.00,2,,95
2012-12-12,73,62,52,56,50,47,77,63,36,30.04,29.96,29.88,2,2,1,9,5,,0.00,2,,108
2012-12-13,73,64,54,54,52,47,82,65,33,30.04,29.95,29.86,2,2,1,10,6,,0.00,3,,107
2012-12-14,79,67,55,55,53,50,82,63,42,30.09,30.01,29.88,2,2,1,10,4,,0.00,3,,91
2012-12-15,79,69,59,57,55,50,77,63,35,30.15,30.08,29.97,2,1,1,9,7,,0.00,3,,97
2012-12-16,77,68,60,60,58,55,94,72,49,30.18,30.12,30.05,2,1,0,8,2,,0.00,3,Fog,65
2012-12-17,77,64,51,57,44,30,72,48,12,30.21,30.13,30.03,2,1,1,7,4,,0.00,3,,43
2012-12-18,79,65,51,42,36,27,62,32,11,30.15,30.09,29.95,2,2,1,9,3,,0.00,2,,329
2012-12-19,73,64,55,43,37,30,55,38,12,30.15,30.07,30.00,3,2,1,9,6,17,0.00,1,,310
2012-12-20,75,60,45,41,30,21,54,32,7,30.06,30.01,29.94,3,2,1,7,3,,0.00,1,,323
2012-12-21,77,60,44,41,33,27,62,37,12,30.09,30.02,29.94,3,2,1,6,1,,0.00,1,,138
2012-12-22,79,62,45,42,34,22,66,40,5,30.12,30.04,29.96,3,2,1,6,1,,0.00,,,95
2012-12-23,75,62,48,43,36,29,71,42,10,30.12,30.05,29.98,2,2,1,7,2,,0.00,,,156
2012-12-24,75,59,43,46,40,32,87,52,14,30.09,30.02,29.92,2,1,0,7,3,,0.00,,Fog,52
2012-12-25,74,60,45,47,41,30,87,54,12,30.06,30.01,29.93,2,1,0,9,2,,0.00,,Fog,261
2012-12-26,74,59,44,48,42,37,82,55,18,30.06,30.00,29.94,2,1,1,7,2,,0.00,,,160
2012-12-27,71,58,46,46,42,36,87,59,20,30.04,29.97,29.91,2,2,0,7,4,,0.00,1,Fog,121
2012-12-28,72,59,46,48,45,41,87,63,29,29.95,29.89,29.81,2,1,0,9,5,,0.00,,Fog,119
2012-12-29,72,60,47,58,46,43,87,62,36,30.04,29.94,29.87,2,1,1,8,4,,0.00,,,78
2012-12-30,70,58,47,47,44,37,76,56,33,30.04,29.99,29.91,2,1,1,7,3,,0.00,4,,64
2012-12-31,69,56,43,45,38,32,87,56,15,30.04,29.97,29.88,2,2,1,6,1,,0.00,5,,55